Varzedo, Brazil
Current Conditions -  °F | °C
As of 9:00 AM on Tuesday 21 Oct 2014 (Local Time) from SBSV Reporting Station
Scattered Clouds Scattered Clouds  
Wind Chill: 82°   Ceiling: Unl
Heat Index: 86°   Visibility: 6mi
Dew Point: 70°   Wind: 13mph
Humidity: 66%   Direction: 90°E
Pressure: 29.97"   Gusts: NA
Location:  12.98°S, 39.37°W
Report Text: SBSV 211200Z 09011KT 9999 SCT017 28/21 Q1015
Loading
Personal Weather Stations






























Interactive Weather Map
Tropical Storm Tracking
New forecast layout! Learn more

10-Day Weather Forecast

Advertisements
Track Severe Weather on mobile